createdAt,value
2022-08-05T00:01:36.454Z,101633.03
2022-08-05T00:04:18.857Z,101638.00
2022-08-05T00:06:47.051Z,101641.41
2022-08-05T00:09:15.825Z,101642.16
2022-08-05T00:11:49.362Z,101631.91
2022-08-05T00:14:22.794Z,101637.25
2022-08-05T00:16:55.437Z,101640.66
2022-08-05T00:19:23.479Z,101628.50
2022-08-05T00:21:54.053Z,101630.00
2022-08-05T00:24:24.875Z,101613.00
2022-08-05T00:26:57.430Z,101620.97
2022-08-05T00:29:25.564Z,101626.28
2022-08-05T00:32:13.245Z,101630.09
2022-08-05T00:34:57.051Z,101625.94
2022-08-05T00:37:35.284Z,101624.38
2022-08-05T00:40:02.791Z,101629.69
2022-08-05T00:42:32.217Z,101633.50
2022-08-05T00:44:59.458Z,101633.50
2022-08-05T00:47:26.165Z,101626.69
2022-08-05T00:49:58.262Z,101627.44
2022-08-05T00:52:28.239Z,101632.75
2022-08-05T00:54:56.146Z,101634.66
2022-08-05T00:57:23.440Z,101633.50
2022-08-05T00:59:52.270Z,101632.75
2022-08-05T01:02:18.974Z,101621.72
2022-08-05T01:04:45.477Z,101612.63
2022-08-05T01:07:18.003Z,101626.69
2022-08-05T01:09:44.782Z,101633.16
2022-08-05T01:12:18.768Z,101630.50
2022-08-05T01:15:06.459Z,101637.00
2022-08-05T01:18:00.997Z,101631.69
2022-08-05T01:20:41.353Z,101634.66
2022-08-05T01:23:23.387Z,101639.97
2022-08-05T01:26:26.194Z,101651.03
2022-08-05T01:28:55.614Z,101645.72
2022-08-05T01:31:33.126Z,101658.25
2022-08-05T01:34:35.910Z,101650.69
2022-08-05T01:37:07.828Z,101648.03
2022-08-05T01:39:47.582Z,101657.91
2022-08-05T01:42:17.252Z,101665.88
2022-08-05T01:44:54.184Z,101662.47
2022-08-05T01:47:22.214Z,101662.47
2022-08-05T01:50:01.781Z,101675.75
2022-08-05T01:52:31.263Z,101668.19
2022-08-05T01:55:05.533Z,101669.72
2022-08-05T01:58:13.077Z,101679.97
2022-08-05T02:00:30.033Z,101668.59
2022-08-05T02:03:33.933Z,101659.84
2022-08-05T02:06:03.554Z,101656.03
2022-08-05T02:08:58.457Z,101653.38
2022-08-05T02:11:33.219Z,101654.53
2022-08-05T02:14:06.237Z,101656.03
2022-08-05T02:16:39.763Z,101654.13
2022-08-05T02:19:16.227Z,101664.03
2022-08-05T02:21:52.785Z,101681.47
2022-08-05T02:24:23.513Z,101681.06
2022-08-05T02:26:54.786Z,101650.72
2022-08-05T02:29:58.093Z,101642.44
2022-08-05T02:32:11.736Z,101651.88
2022-08-05T02:34:54.851Z,101657.19
2022-08-05T02:37:23.251Z,101647.31
2022-08-05T02:39:51.522Z,101650.41
2022-08-05T02:42:25.996Z,101644.75
2022-08-05T02:44:55.930Z,101646.25
2022-08-05T02:47:23.671Z,101637.53
2022-08-05T02:49:51.449Z,101633.34
2022-08-05T02:52:29.609Z,101647.41
2022-08-05T02:54:58.615Z,101643.59
2022-08-05T02:58:09.832Z,101642.09
2022-08-05T03:00:17.038Z,101640.56
2022-08-05T03:02:45.500Z,101636.44
2022-08-05T03:05:13.825Z,101637.59
2022-08-05T03:08:01.307Z,101646.72
2022-08-05T03:10:29.086Z,101652.03
2022-08-05T03:15:23.435Z,101659.59
2022-08-05T03:17:53.861Z,101655.03
2022-08-05T03:20:22.180Z,101651.63
2022-08-05T03:22:50.584Z,101645.63
2022-08-05T03:25:32.860Z,101657.00
2022-08-05T03:28:08.690Z,101645.97
2022-08-05T03:30:36.364Z,101652.03
2022-08-05T03:33:05.604Z,101652.03
2022-08-05T03:35:41.189Z,101650.13
2022-08-05T03:38:10.531Z,101652.03
2022-08-05T03:40:41.089Z,101649.38
2022-08-05T03:43:58.290Z,101649.38
2022-08-05T03:45:59.133Z,101650.13
2022-08-05T03:48:29.036Z,101657.69
2022-08-05T03:52:34.984Z,101660.34
2022-08-05T03:55:49.977Z,101654.63
2022-08-05T03:57:16.719Z,101659.94
2022-08-05T03:59:54.995Z,101664.50
2022-08-05T04:02:38.711Z,101664.91
2022-08-05T04:05:13.015Z,101660.00
2022-08-05T04:07:53.025Z,101652.78
2022-08-05T04:10:32.110Z,101642.59
2022-08-05T04:13:03.382Z,101648.63
2022-08-05T04:15:32.813Z,101649.78
2022-08-05T04:18:03.508Z,101653.94
2022-08-05T04:20:33.612Z,101654.34
2022-08-05T04:23:00.120Z,101653.94
2022-08-05T04:25:56.737Z,101664.56
2022-08-05T04:28:14.932Z,101663.84
2022-08-05T04:30:41.661Z,101662.31
2022-08-05T04:33:09.627Z,101671.03
2022-08-05T04:36:11.347Z,101666.88
2022-08-05T04:38:23.479Z,101670.69
2022-08-05T04:41:07.316Z,101668.78
2022-08-05T04:43:34.072Z,101669.53
2022-08-05T04:46:00.705Z,101668.78
2022-08-05T04:48:28.388Z,101664.63
2022-08-05T04:51:03.138Z,101661.97
2022-08-05T04:53:36.487Z,101670.69
2022-08-05T04:56:33.654Z,101668.03
2022-08-05T04:58:52.977Z,101670.69
2022-08-05T05:01:33.581Z,101668.78
2022-08-05T05:04:06.005Z,101671.44
2022-08-05T05:06:40.557Z,101673.34
2022-08-05T05:09:17.458Z,101670.34
2022-08-05T05:11:54.614Z,101675.25
2022-08-05T05:14:28.127Z,101684.72
2022-08-05T05:16:58.665Z,101674.09
2022-08-05T05:19:27.409Z,101680.91
2022-08-05T05:22:03.595Z,101676.50
2022-08-05T05:24:58.667Z,101680.00
2022-08-05T05:27:44.614Z,101674.09
2022-08-05T05:30:29.371Z,101672.28
2022-08-05T05:33:03.786Z,101676.94
2022-08-05T05:35:43.384Z,101677.69
2022-08-05T05:38:13.250Z,101676.63
2022-08-05T05:40:48.322Z,101680.91
2022-08-05T05:43:22.255Z,101671.03
2022-08-05T05:46:06.877Z,101677.94
2022-08-05T05:48:41.858Z,101689.72
2022-08-05T05:51:14.780Z,101692.06
2022-08-05T05:53:45.969Z,101696.91
2022-08-05T05:56:26.026Z,101699.50
2022-08-05T05:59:02.956Z,101693.94
2022-08-05T06:01:38.107Z,101696.34
2022-08-05T06:04:12.062Z,101698.22
2022-08-05T06:06:47.536Z,101705.88
2022-08-05T06:09:25.813Z,101707.25
2022-08-05T06:12:04.967Z,101701.50
2022-08-05T06:14:31.845Z,101701.44
2022-08-05T06:17:02.125Z,101708.97
2022-08-05T06:19:56.523Z,101706.22
2022-08-05T06:22:29.107Z,101702.31
2022-08-05T06:24:55.823Z,101711.06
2022-08-05T06:28:12.441Z,101711.59
2022-08-05T06:30:17.707Z,101709.81
2022-08-05T06:32:46.884Z,101707.09
2022-08-05T06:35:21.827Z,101711.47
2022-08-05T06:38:03.061Z,101712.34
2022-08-05T06:40:34.769Z,101715.38
2022-08-05T06:43:51.519Z,101721.41
2022-08-05T06:46:04.007Z,101720.19
2022-08-05T06:48:55.389Z,101722.53
2022-08-05T06:51:29.386Z,101724.41
2022-08-05T06:53:58.919Z,101720.09
2022-08-05T06:56:26.384Z,101720.88
2022-08-05T06:58:53.593Z,101725.41
2022-08-05T07:01:20.917Z,101718.06
2022-08-05T07:03:47.694Z,101716.09
2022-08-05T07:06:15.278Z,101731.19
2022-08-05T07:08:47.534Z,101734.03
2022-08-05T07:11:22.643Z,101746.66
2022-08-05T07:14:15.385Z,101743.44
2022-08-05T07:17:59.331Z,101752.16
2022-08-05T07:22:28.540Z,101756.25
2022-08-05T07:25:21.850Z,101767.63
2022-08-05T07:27:58.557Z,101767.00
2022-08-05T07:30:32.447Z,101774.50
2022-08-05T07:33:00.921Z,101770.91
2022-08-05T07:36:04.263Z,101777.63
2022-08-05T07:38:26.422Z,101786.97
2022-08-05T07:41:04.436Z,101789.19
2022-08-05T07:43:43.803Z,101789.06
2022-08-05T07:46:24.315Z,101792.06
2022-08-05T07:49:02.984Z,101789.41
2022-08-05T07:51:37.281Z,101792.75
2022-08-05T07:54:05.384Z,101801.44
2022-08-05T07:56:39.139Z,101797.66
2022-08-05T07:59:23.168Z,101799.47
2022-08-05T08:01:58.044Z,101805.75
2022-08-05T08:04:37.537Z,101813.06
2022-08-05T08:07:07.389Z,101803.53
2022-08-05T08:09:34.917Z,101806.38
2022-08-05T08:12:09.030Z,101808.81
2022-08-05T08:14:37.925Z,101802.13
2022-08-05T08:17:10.868Z,101813.31
2022-08-05T08:20:42.926Z,101806.66
2022-08-05T08:22:32.314Z,101808.72
2022-08-05T08:25:03.356Z,101810.09
2022-08-05T08:27:44.932Z,101818.34
2022-08-05T08:30:29.523Z,101813.78
2022-08-05T08:33:08.559Z,101809.50
2022-08-05T08:35:41.521Z,101815.13
2022-08-05T08:38:36.004Z,101819.25
2022-08-05T08:41:10.059Z,101829.75
2022-08-05T08:45:16.388Z,101828.09
2022-08-05T08:46:31.630Z,101829.19
2022-08-05T08:49:17.372Z,101836.38
2022-08-05T08:52:03.694Z,101840.59
2022-08-05T08:54:32.537Z,101840.19
2022-08-05T08:56:59.707Z,101827.06
2022-08-05T08:59:27.772Z,101837.72
2022-08-05T09:02:04.410Z,101830.47
2022-08-05T09:04:58.597Z,101841.13
2022-08-05T09:07:28.366Z,101844.53
2022-08-05T09:09:56.300Z,101842.56
2022-08-05T09:12:30.231Z,101851.22
2022-08-05T09:15:04.849Z,101856.47
2022-08-05T09:17:42.247Z,101858.31
2022-08-05T09:20:10.753Z,101857.19
2022-08-05T09:23:07.938Z,101865.53
2022-08-05T09:26:03.274Z,101854.22
2022-08-05T09:28:24.425Z,101862.97
2022-08-05T09:32:38.569Z,101862.03
2022-08-05T09:34:01.787Z,101871.44
2022-08-05T09:36:54.223Z,101870.75
2022-08-05T09:39:27.769Z,101879.00
2022-08-05T09:42:13.629Z,101882.44
2022-08-05T09:44:50.591Z,101882.00
2022-08-05T09:47:20.723Z,101885.50
2022-08-05T09:50:00.412Z,101890.13
2022-08-05T09:52:34.218Z,101899.69
2022-08-05T09:55:58.524Z,101891.47
2022-08-05T09:57:58.640Z,101894.63
2022-08-05T10:00:26.734Z,101897.31
2022-08-05T10:02:58.641Z,101903.78
2022-08-05T10:05:32.690Z,101906.88
2022-08-05T10:07:59.447Z,101910.59
2022-08-05T10:10:50.380Z,101905.72
2022-08-05T10:13:47.728Z,101909.09
2022-08-05T10:16:41.608Z,101910.66
2022-08-05T10:19:23.521Z,101913.31
2022-08-05T10:21:58.647Z,101910.28
2022-08-05T10:24:27.118Z,101901.13
2022-08-05T10:26:56.297Z,101904.97
2022-08-05T10:30:07.180Z,101906.13
2022-08-05T10:33:01.988Z,101913.69
2022-08-05T10:35:03.271Z,101924.38
2022-08-05T10:37:40.184Z,101927.88
2022-08-05T10:40:22.356Z,101934.34
2022-08-05T10:42:59.255Z,101936.09
2022-08-05T10:45:40.431Z,101935.00
2022-08-05T10:48:57.371Z,101942.59
2022-08-05T10:51:29.209Z,101949.38
2022-08-05T10:54:01.800Z,101953.22
2022-08-05T10:56:45.788Z,101954.38
2022-08-05T11:00:03.612Z,101961.53
2022-08-05T11:02:13.999Z,101953.56
2022-08-05T11:04:46.336Z,101956.22
2022-08-05T11:07:16.426Z,101958.88
2022-08-05T11:10:03.648Z,101966.09
2022-08-05T11:12:54.467Z,101968.47
2022-08-05T11:16:01.392Z,101973.00
2022-08-05T11:18:34.312Z,101973.00
2022-08-05T11:21:06.352Z,101975.66
2022-08-05T11:24:03.782Z,101987.06
2022-08-05T11:26:43.414Z,101984.03
2022-08-05T11:29:37.269Z,101994.00
2022-08-05T11:32:27.433Z,101993.31
2022-08-05T11:34:55.265Z,101997.88
2022-08-05T11:38:29.636Z,101988.78
2022-08-05T11:41:58.231Z,102000.13
2022-08-05T11:44:40.712Z,102005.47
2022-08-05T11:47:14.068Z,102008.13
2022-08-05T11:49:50.907Z,102009.25
2022-08-05T11:52:28.991Z,102021.06
2022-08-05T11:54:58.014Z,102028.31
2022-08-05T11:58:07.861Z,102028.38
2022-08-05T12:00:31.108Z,102020.81
2022-08-05T12:02:57.790Z,102039.00
2022-08-05T12:05:36.080Z,102036.03
2022-08-05T12:08:10.099Z,102045.16
2022-08-05T12:10:45.459Z,102040.59
2022-08-05T12:13:47.259Z,102044.41
2022-08-05T12:16:14.959Z,102037.50
2022-08-05T12:18:49.033Z,102043.19
2022-08-05T12:21:23.870Z,102043.19
2022-08-05T12:24:08.344Z,102057.28
2022-08-05T12:26:36.110Z,102048.13
2022-08-05T12:29:09.356Z,102058.78
2022-08-05T12:31:43.498Z,102059.13
2022-08-05T12:34:21.585Z,102052.31
2022-08-05T12:36:53.231Z,102054.56
2022-08-05T12:39:19.887Z,102058.06
2022-08-05T12:41:46.569Z,102075.09
2022-08-05T12:44:33.012Z,102072.91
2022-08-05T12:47:01.791Z,102071.13
2022-08-05T12:50:04.782Z,102075.38
2022-08-05T12:52:38.508Z,102082.91
2022-08-05T12:55:33.039Z,102082.53
2022-08-05T12:58:49.098Z,102085.13
2022-08-05T13:02:00.180Z,102087.78
2022-08-05T13:03:42.311Z,102083.97
2022-08-05T13:06:17.715Z,102085.50
2022-08-05T13:08:51.805Z,102090.06
2022-08-05T13:11:57.945Z,102095.38
2022-08-05T13:14:19.329Z,102088.88
2022-08-05T13:16:51.540Z,102087.72
2022-08-05T13:19:21.077Z,102093.78
2022-08-05T13:21:52.387Z,102101.00
2022-08-05T13:24:36.282Z,102105.16
2022-08-05T13:27:11.275Z,102102.84
2022-08-05T13:29:59.373Z,102104.34
2022-08-05T13:32:35.164Z,102113.84
2022-08-05T13:35:07.210Z,102121.41
2022-08-05T13:37:34.453Z,102118.00
2022-08-05T13:40:14.139Z,102124.13
2022-08-05T13:42:43.982Z,102117.75
2022-08-05T13:45:12.082Z,102118.84
2022-08-05T13:48:09.504Z,102132.91
2022-08-05T13:50:25.937Z,102129.09
2022-08-05T13:52:52.392Z,102129.94
2022-08-05T13:55:41.666Z,102148.19
2022-08-05T13:58:05.416Z,102144.78
2022-08-05T14:00:31.966Z,102143.63
2022-08-05T14:03:01.029Z,102141.03
2022-08-05T14:05:48.118Z,102152.41
2022-08-05T14:08:20.980Z,102152.41
2022-08-05T14:10:54.131Z,102150.50
2022-08-05T14:13:30.089Z,102154.66
2022-08-05T14:16:08.684Z,102158.88
2022-08-05T14:18:37.946Z,102153.94
2022-08-05T14:21:23.840Z,102150.91
2022-08-05T14:23:51.108Z,102156.97
2022-08-05T14:26:36.843Z,102157.38
2022-08-05T14:29:04.512Z,102167.56
2022-08-05T14:31:54.394Z,102162.59
2022-08-05T14:34:18.151Z,102163.31
2022-08-05T14:36:50.243Z,102160.59
2022-08-05T14:39:23.305Z,102172.00
2022-08-05T14:42:16.708Z,102183.41
2022-08-05T14:44:36.719Z,102180.78
2022-08-05T14:47:03.672Z,102178.84
2022-08-05T14:49:56.506Z,102179.53
2022-08-05T14:52:36.268Z,102185.88
2022-08-05T14:55:03.344Z,102185.69
2022-08-05T14:57:53.965Z,102198.75
2022-08-05T15:00:16.525Z,102200.44
2022-08-05T15:02:47.245Z,102197.69
2022-08-05T15:05:14.202Z,102201.34
2022-08-05T15:08:08.804Z,102206.78
2022-08-05T15:10:28.841Z,102209.53
2022-08-05T15:13:03.636Z,102199.16
2022-08-05T15:15:53.847Z,102192.69
2022-08-05T15:18:17.441Z,102205.69
2022-08-05T15:20:44.401Z,102205.19
2022-08-05T15:23:13.224Z,102201.66
2022-08-05T15:25:52.812Z,102200.00
2022-08-05T15:28:27.426Z,102216.75
2022-08-05T15:30:55.055Z,102207.66
2022-08-05T15:33:56.820Z,102208.97
2022-08-05T15:36:16.674Z,102207.66
2022-08-05T15:38:44.714Z,102203.81
2022-08-05T15:41:23.235Z,102207.03
2022-08-05T15:43:52.476Z,102203.66
2022-08-05T15:46:24.425Z,102207.06
2022-08-05T15:48:53.032Z,102213.75
2022-08-05T15:52:13.654Z,102209.56
2022-08-05T15:54:15.169Z,102220.91
2022-08-05T15:56:42.417Z,102211.00
2022-08-05T15:59:10.302Z,102212.84
2022-08-05T16:01:53.146Z,102221.25
2022-08-05T16:04:25.378Z,102217.28
2022-08-05T16:06:53.565Z,102222.56
2022-08-05T16:09:22.607Z,102232.16
2022-08-05T16:11:52.863Z,102226.84
2022-08-05T16:14:20.531Z,102237.06
2022-08-05T16:16:49.048Z,102237.84
2022-08-05T16:19:25.906Z,102239.34
2022-08-05T16:22:03.427Z,102235.69
2022-08-05T16:24:40.287Z,102247.00
2022-08-05T16:27:17.527Z,102243.16
2022-08-05T16:29:50.038Z,102254.22
2022-08-05T16:32:17.366Z,102245.28
2022-08-05T16:34:50.874Z,102251.41
2022-08-05T16:38:03.340Z,102249.91
2022-08-05T16:40:13.337Z,102251.50
2022-08-05T16:42:51.768Z,102257.16
2022-08-05T16:46:07.314Z,102259.81
2022-08-05T16:48:05.023Z,102275.09
2022-08-05T16:50:31.480Z,102277.81
2022-08-05T16:52:57.982Z,102263.84
2022-08-05T16:55:28.181Z,102269.91
2022-08-05T16:58:13.133Z,102275.22
2022-08-05T17:00:40.745Z,102274.75
2022-08-05T17:03:09.342Z,102271.88
2022-08-05T17:05:42.440Z,102282.50
2022-08-05T17:08:08.955Z,102288.97
2022-08-05T17:10:39.904Z,102290.47
2022-08-05T17:13:06.536Z,102298.84
2022-08-05T17:15:48.664Z,102293.56
2022-08-05T17:18:17.596Z,102294.41
2022-08-05T17:20:45.713Z,102296.38
2022-08-05T17:24:03.180Z,102302.41
2022-08-05T17:25:58.746Z,102308.47
2022-08-05T17:28:25.706Z,102302.41
2022-08-05T17:30:55.475Z,102299.72
2022-08-05T17:33:22.042Z,102305.03
2022-08-05T17:36:08.082Z,102303.91
2022-08-05T17:38:36.337Z,102310.38
2022-08-05T17:41:02.937Z,102314.59
2022-08-05T17:43:50.506Z,102326.84
2022-08-05T17:46:16.124Z,102325.28
2022-08-05T17:48:44.973Z,102326.81
2022-08-05T17:51:14.554Z,102327.56
2022-08-05T17:53:50.775Z,102332.97
2022-08-05T17:56:21.106Z,102333.34
2022-08-05T17:58:49.478Z,102337.47
2022-08-05T18:01:17.682Z,102342.38
2022-08-05T18:03:55.901Z,102338.19
2022-08-05T18:06:29.263Z,102333.66
2022-08-05T18:08:55.863Z,102347.00
2022-08-05T18:11:32.450Z,102349.66
2022-08-05T18:14:04.194Z,102362.13
2022-08-05T18:16:32.503Z,102354.88
2022-08-05T18:18:59.048Z,102360.91
2022-08-05T18:21:26.453Z,102370.03
2022-08-05T18:23:54.970Z,102367.97
2022-08-05T18:26:29.099Z,102369.94
2022-08-05T18:28:58.879Z,102378.38
2022-08-05T18:31:25.495Z,102378.06
2022-08-05T18:33:59.628Z,102379.59
2022-08-05T18:36:28.122Z,102381.97
2022-08-05T18:38:55.151Z,102382.81
2022-08-05T18:41:55.880Z,102388.09
2022-08-05T18:44:08.149Z,102387.75
2022-08-05T18:46:35.506Z,102393.53
2022-08-05T18:49:22.393Z,102392.03
2022-08-05T18:52:15.921Z,102392.41
2022-08-05T18:54:45.804Z,102391.66
2022-08-05T18:57:15.408Z,102391.34
2022-08-05T19:00:01.475Z,102401.56
2022-08-05T19:02:29.639Z,102404.69
2022-08-05T19:05:02.137Z,102410.78
2022-08-05T19:07:47.937Z,102414.91
2022-08-05T19:10:16.045Z,102414.13
2022-08-05T19:12:43.705Z,102420.25
2022-08-05T19:15:57.766Z,102415.75
2022-08-05T19:18:10.387Z,102425.22
2022-08-05T19:20:46.792Z,102424.81
2022-08-05T19:24:04.208Z,102427.88
2022-08-05T19:26:02.688Z,102436.22
2022-08-05T19:28:33.688Z,102437.75
2022-08-05T19:31:01.071Z,102446.16
2022-08-05T19:33:35.503Z,102442.34
2022-08-05T19:36:05.977Z,102453.00
2022-08-05T19:38:37.152Z,102453.72
2022-08-05T19:41:07.213Z,102450.34
2022-08-05T19:44:04.082Z,102457.97
2022-08-05T19:46:30.062Z,102460.97
2022-08-05T19:49:05.144Z,102459.47
2022-08-05T19:52:08.267Z,102456.84
2022-08-05T19:54:27.029Z,102465.97
2022-08-05T19:56:58.265Z,102470.56
2022-08-05T20:00:00.675Z,102473.56
2022-08-05T20:02:11.557Z,102473.53
2022-08-05T20:04:38.077Z,102474.69
2022-08-05T20:07:13.485Z,102479.22
2022-08-05T20:09:55.021Z,102483.75
2022-08-05T20:12:24.533Z,102489.06
2022-08-05T20:14:52.734Z,102493.59
2022-08-05T20:17:23.647Z,102495.53
2022-08-05T20:19:50.570Z,102497.75
2022-08-05T20:22:17.080Z,102504.19
2022-08-05T20:24:46.885Z,102498.88
2022-08-05T20:27:15.867Z,102508.75
2022-08-05T20:29:42.435Z,102509.13
2022-08-05T20:32:25.232Z,102514.44
2022-08-05T20:34:51.833Z,102516.72
2022-08-05T20:38:04.811Z,102521.66
2022-08-05T20:40:05.705Z,102521.28
2022-08-05T20:42:33.249Z,102531.13
2022-08-05T20:44:59.716Z,102532.25
2022-08-05T20:47:31.693Z,102538.31
2022-08-05T20:49:59.300Z,102530.34
2022-08-05T20:52:26.191Z,102537.56
2022-08-05T20:55:55.377Z,102537.94
2022-08-05T20:57:43.211Z,102530.75
2022-08-05T21:00:40.742Z,102539.47
2022-08-05T21:03:07.157Z,102542.13
2022-08-05T21:05:48.326Z,102538.31
2022-08-05T21:08:20.901Z,102537.53
2022-08-05T21:10:53.503Z,102546.28
2022-08-05T21:13:26.008Z,102543.25
2022-08-05T21:15:54.571Z,102542.09
2022-08-05T21:18:23.379Z,102542.47
2022-08-05T21:20:49.947Z,102543.25
2022-08-05T21:23:16.436Z,102547.03
2022-08-05T21:25:44.767Z,102544.75
2022-08-05T21:28:12.083Z,102547.41
2022-08-05T21:30:39.991Z,102550.06
2022-08-05T21:33:22.002Z,102557.28
2022-08-05T21:35:55.827Z,102550.81
2022-08-05T21:38:26.604Z,102558.41
2022-08-05T21:40:53.125Z,102559.53
2022-08-05T21:43:24.494Z,102562.97
2022-08-05T21:45:56.372Z,102561.44
2022-08-05T21:48:24.322Z,102565.63
2022-08-05T21:50:53.007Z,102564.47
2022-08-05T21:53:21.014Z,102568.28
2022-08-05T21:56:05.354Z,102565.25
2022-08-05T21:58:34.090Z,102568.28
2022-08-05T22:01:04.838Z,102570.16
2022-08-05T22:03:52.379Z,102566.75
2022-08-05T22:06:22.382Z,102565.63
2022-08-05T22:08:52.168Z,102560.72
2022-08-05T22:11:35.207Z,102572.50
2022-08-05T22:14:19.957Z,102569.84
2022-08-05T22:16:51.230Z,102578.56
2022-08-05T22:20:01.116Z,102577.44
2022-08-05T22:22:06.961Z,102585.03
2022-08-05T22:24:53.591Z,102587.69
2022-08-05T22:28:09.354Z,102591.47
2022-08-05T22:30:32.226Z,102594.88
2022-08-05T22:33:01.457Z,102588.06
2022-08-05T22:35:31.262Z,102589.19
2022-08-05T22:38:14.807Z,102591.13
2022-08-05T22:40:41.736Z,102587.69
2022-08-05T22:43:15.954Z,102588.84
2022-08-05T22:46:08.830Z,102593.78
2022-08-05T22:48:39.612Z,102603.63
2022-08-05T22:51:07.613Z,102603.63
2022-08-05T22:53:35.983Z,102597.94
2022-08-05T22:56:03.309Z,102600.59
2022-08-05T22:58:36.475Z,102604.03
2022-08-05T23:01:02.985Z,102605.53
2022-08-05T23:03:58.504Z,102607.03
2022-08-05T23:06:18.971Z,102617.66
2022-08-05T23:08:45.665Z,102614.25
2022-08-05T23:11:18.828Z,102618.84
2022-08-05T23:13:45.979Z,102613.91
2022-08-05T23:16:25.998Z,102615.03
2022-08-05T23:18:59.860Z,102613.13
2022-08-05T23:21:26.401Z,102619.56
2022-08-05T23:24:11.194Z,102629.03
2022-08-05T23:26:38.297Z,102628.28
2022-08-05T23:29:05.298Z,102630.19
2022-08-05T23:31:31.837Z,102626.03
2022-08-05T23:34:04.396Z,102631.72
2022-08-05T23:36:39.981Z,102640.81
2022-08-05T23:39:17.138Z,102640.81
2022-08-05T23:41:50.260Z,102633.25
2022-08-05T23:44:16.931Z,102636.28
2022-08-05T23:46:46.348Z,102640.44
2022-08-05T23:49:15.871Z,102638.16
2022-08-05T23:52:02.677Z,102638.94
2022-08-05T23:54:36.578Z,102652.56
2022-08-05T23:57:06.175Z,102648.38
2022-08-05T23:59:37.604Z,102652.94
